Time;durP1;ratioP1;P1;durP2;ratioP2;P2;SDS_P1;SDS_P2;PMS_P1;PMS_P2;Temp;Humidity;BMP_temperature;BMP_pressure;BME280_temperature;BME280_humidity;BME280_pressure;Samples;Min_cycle;Max_cycle;Signal;HPM_P1;HPM_P2
2023/04/18 00:02:15;;;;;;;2.00;1.80;;;19.20;53.30;;;;;;5029472;28;20211;-69
2023/04/18 00:04:45;;;;;;;1.67;1.58;;;19.20;53.30;;;;;;5031992;28;20245;-69
2023/04/18 00:07:13;;;;;;;1.50;1.40;;;19.20;53.30;;;;;;5032756;28;20179;-70
2023/04/18 00:09:43;;;;;;;1.45;1.35;;;19.20;53.30;;;;;;5031836;28;20211;-69
2023/04/18 00:12:10;;;;;;;2.05;1.50;;;19.20;53.30;;;;;;5031289;28;20760;-69
2023/04/18 00:14:36;;;;;;;1.90;1.80;;;19.20;53.30;;;;;;5031688;28;20194;-70
2023/04/18 00:17:09;;;;;;;1.45;1.35;;;19.20;53.30;;;;;;5031197;28;20179;-69
2023/04/18 00:19:41;;;;;;;2.67;1.52;;;19.20;53.30;;;;;;5032648;28;20730;-70
2023/04/18 00:22:11;;;;;;;1.40;1.30;;;19.30;53.40;;;;;;5032610;28;20218;-69
2023/04/18 00:24:38;;;;;;;1.60;1.50;;;19.20;53.30;;;;;;5031399;28;20187;-69
2023/04/18 00:27:04;;;;;;;1.55;1.45;;;19.20;53.30;;;;;;5031394;28;20198;-69
2023/04/18 00:29:30;;;;;;;2.05;1.85;;;19.30;53.40;;;;;;5031554;28;20203;-69
2023/04/18 00:31:57;;;;;;;1.90;1.80;;;19.20;53.30;;;;;;5014934;28;20229;-70
2023/04/18 00:34:22;;;;;;;2.25;2.00;;;19.20;53.30;;;;;;5031236;28;20241;-70
2023/04/18 00:36:48;;;;;;;1.73;1.40;;;19.20;53.30;;;;;;5036743;28;20693;-69
2023/04/18 00:39:14;;;;;;;1.67;1.58;;;19.20;53.30;;;;;;5014599;28;20650;-70
2023/04/18 00:41:42;;;;;;;1.73;1.63;;;19.20;53.20;;;;;;5031261;28;20211;-70
2023/04/18 00:44:07;;;;;;;1.83;1.73;;;19.20;53.20;;;;;;5047657;28;20188;-69
2023/04/18 00:46:33;;;;;;;1.90;1.80;;;19.20;53.20;;;;;;5031004;28;20194;-70
2023/04/18 00:48:59;;;;;;;1.88;1.73;;;19.20;53.20;;;;;;4994998;28;20257;-70
2023/04/18 00:51:26;;;;;;;1.45;1.35;;;19.20;53.20;;;;;;5013804;28;20215;-69
2023/04/18 00:53:52;;;;;;;1.70;1.60;;;19.20;53.20;;;;;;5011116;28;20184;-69
2023/04/18 00:56:18;;;;;;;1.95;1.85;;;19.20;53.20;;;;;;5029300;28;20601;-70
2023/04/18 00:58:44;;;;;;;1.73;1.63;;;19.20;53.20;;;;;;5048039;28;20214;-69
2023/04/18 01:01:10;;;;;;;2.00;1.63;;;19.20;53.30;;;;;;5030520;28;20565;-69
2023/04/18 01:03:36;;;;;;;1.60;1.50;;;19.20;53.20;;;;;;5038277;28;20183;-70
2023/04/18 01:06:02;;;;;;;1.63;1.52;;;19.20;53.20;;;;;;5032125;28;20264;-69
2023/04/18 01:08:28;;;;;;;1.85;1.73;;;19.20;53.90;;;;;;5014474;28;20186;-69
2023/04/18 01:10:56;;;;;;;1.70;1.60;;;19.20;53.20;;;;;;5030712;28;20686;-69
2023/04/18 01:13:22;;;;;;;2.15;1.95;;;19.20;53.20;;;;;;5014014;28;20187;-69
2023/04/18 01:15:49;;;;;;;2.13;1.92;;;19.20;53.20;;;;;;5031961;28;20203;-69
2023/04/18 01:18:16;;;;;;;1.92;1.83;;;19.20;53.20;;;;;;5030613;28;20194;-69
2023/04/18 01:20:48;;;;;;;1.98;1.65;;;19.20;53.20;;;;;;5030756;28;20249;-69
2023/04/18 01:23:16;;;;;;;2.17;2.00;;;19.20;53.20;;;;;;5030651;28;20295;-69
2023/04/18 01:25:43;;;;;;;1.60;1.50;;;19.20;53.20;;;;;;5031021;28;20219;-69
2023/04/18 01:28:10;;;;;;;1.80;1.70;;;19.20;53.20;;;;;;5030871;28;20186;-69
2023/04/18 01:30:36;;;;;;;2.00;1.90;;;19.20;53.20;;;;;;5030674;28;20215;-69
2023/04/18 01:33:04;;;;;;;1.92;1.83;;;19.20;53.20;;;;;;5030179;28;20320;-69
2023/04/18 01:35:31;;;;;;;1.80;1.70;;;19.20;53.20;;;;;;5030537;28;20215;-69
2023/04/18 01:37:57;;;;;;;2.00;1.90;;;19.20;53.20;;;;;;5023741;28;20193;-69
2023/04/18 01:40:24;;;;;;;1.77;1.65;;;19.20;53.20;;;;;;5029159;28;20188;-69
2023/04/18 01:42:50;;;;;;;1.50;1.40;;;19.20;53.80;;;;;;5030296;28;20207;-69
2023/04/18 01:45:18;;;;;;;2.60;1.88;;;19.20;53.20;;;;;;5030721;28;20187;-69
2023/04/18 01:47:44;;;;;;;2.10;2.00;;;19.20;53.20;;;;;;5014180;28;20218;-69
2023/04/18 01:50:11;;;;;;;2.33;2.17;;;19.20;53.30;;;;;;5030523;28;20249;-69
2023/04/18 01:52:37;;;;;;;1.92;1.83;;;19.20;53.30;;;;;;5030348;28;20203;-70
2023/04/18 01:55:04;;;;;;;2.10;2.00;;;19.20;53.20;;;;;;5030353;28;20183;-69
2023/04/18 01:57:35;;;;;;;2.00;1.90;;;19.20;53.20;;;;;;5014005;28;20192;-69
2023/04/18 02:00:05;;;;;;;1.90;1.80;;;19.20;53.20;;;;;;5020131;28;20184;-69
2023/04/18 02:02:40;;;;;;;2.30;2.20;;;19.20;53.20;;;;;;5023000;28;20250;-69
2023/04/18 02:05:06;;;;;;;2.03;1.88;;;19.20;53.20;;;;;;5022221;28;20207;-69
2023/04/18 02:07:32;;;;;;;2.13;2.03;;;19.20;53.20;;;;;;5030299;28;20222;-69
2023/04/18 02:09:58;;;;;;;2.30;2.10;;;19.20;53.20;;;;;;5012653;28;20250;-70
2023/04/18 02:12:24;;;;;;;2.42;2.13;;;19.20;53.20;;;;;;5029616;28;20203;-69
2023/04/18 02:14:52;;;;;;;2.00;1.90;;;19.20;53.20;;;;;;5033614;28;20257;-69
2023/04/18 02:17:22;;;;;;;2.40;2.20;;;19.20;53.20;;;;;;5017126;28;20209;-69
2023/04/18 02:19:50;;;;;;;2.33;2.15;;;19.20;53.20;;;;;;5034068;28;20183;-69
2023/04/18 02:22:16;;;;;;;1.90;1.80;;;19.20;53.20;;;;;;5033130;28;20210;-69
2023/04/18 02:24:42;;;;;;;2.30;2.20;;;19.20;53.20;;;;;;5033583;28;20285;-69
2023/04/18 02:27:09;;;;;;;2.40;2.20;;;19.20;53.20;;;;;;5033652;28;20271;-71
2023/04/18 02:29:35;;;;;;;2.35;2.17;;;19.20;53.20;;;;;;5033414;28;20207;-69
2023/04/18 02:32:03;;;;;;;2.28;2.08;;;19.20;53.20;;;;;;5033214;28;20211;-69
2023/04/18 02:34:28;;;;;;;1.90;1.80;;;19.20;53.20;;;;;;5034430;28;20278;-69
2023/04/18 02:36:54;;;;;;;2.38;2.17;;;19.20;53.20;;;;;;5033195;28;20207;-69
2023/04/18 02:39:20;;;;;;;2.03;1.92;;;19.20;53.20;;;;;;5049815;28;20194;-69
2023/04/18 02:41:48;;;;;;;2.22;2.13;;;19.20;53.30;;;;;;5033341;28;20230;-70
2023/04/18 02:44:15;;;;;;;2.22;2.13;;;19.20;53.20;;;;;;5034484;28;20183;-69
2023/04/18 02:46:42;;;;;;;2.40;2.20;;;19.20;53.20;;;;;;5033160;28;20306;-69
2023/04/18 02:49:11;;;;;;;2.25;2.15;;;19.20;53.30;;;;;;5016874;28;20215;-69
2023/04/18 02:51:37;;;;;;;2.45;2.20;;;19.20;53.20;;;;;;5033132;28;20199;-70
2023/04/18 02:54:03;;;;;;;2.90;2.70;;;19.20;53.20;;;;;;5032715;28;20568;-69
2023/04/18 02:56:41;;;;;;;2.25;2.10;;;19.20;53.20;;;;;;5038527;28;20182;-69
2023/04/18 02:59:16;;;;;;;2.60;2.40;;;19.20;53.20;;;;;;5030030;28;20190;-70
2023/04/18 03:02:11;;;;;;;2.35;2.17;;;19.20;53.20;;;;;;5021416;28;20240;-69
2023/04/18 03:04:43;;;;;;;2.35;2.22;;;19.20;53.20;;;;;;5025489;28;20260;-69
2023/04/18 03:07:09;;;;;;;2.40;2.20;;;19.20;53.20;;;;;;5013088;28;20598;-69
2023/04/18 03:09:37;;;;;;;2.83;2.63;;;19.20;53.20;;;;;;5032761;28;20199;-69
2023/04/18 03:12:12;;;;;;;2.40;2.20;;;19.20;53.30;;;;;;5032976;28;20206;-67
2023/04/18 03:14:40;;;;;;;2.50;2.30;;;19.20;53.30;;;;;;5016433;28;20180;-69
2023/04/18 03:17:06;;;;;;;2.75;2.55;;;19.20;53.20;;;;;;5015919;28;20189;-69
2023/04/18 03:19:38;;;;;;;2.10;2.00;;;19.20;53.20;;;;;;5032490;28;20183;-69
2023/04/18 03:22:08;;;;;;;2.80;2.60;;;19.20;53.20;;;;;;5032246;28;20633;-68
2023/04/18 03:24:37;;;;;;;2.88;2.60;;;19.20;53.20;;;;;;5032266;28;20187;-69
2023/04/18 03:27:05;;;;;;;2.80;2.60;;;19.20;53.20;;;;;;5029422;28;20202;-69
2023/04/18 03:29:31;;;;;;;2.88;2.60;;;19.20;53.20;;;;;;5030794;28;20216;-69
2023/04/18 03:31:57;;;;;;;2.65;2.45;;;19.20;53.20;;;;;;5015137;28;20211;-68
2023/04/18 03:34:22;;;;;;;3.25;2.97;;;19.20;53.20;;;;;;5031803;28;20666;-69
2023/04/18 03:36:49;;;;;;;2.75;2.55;;;19.20;53.20;;;;;;5016071;28;20238;-71
2023/04/18 03:39:15;;;;;;;2.95;2.75;;;19.20;53.20;;;;;;5031938;28;20183;-69
2023/04/18 03:41:41;;;;;;;2.88;2.67;;;19.20;53.20;;;;;;5031544;28;20218;-69
2023/04/18 03:44:08;;;;;;;2.38;2.20;;;19.10;53.20;;;;;;5015610;28;20183;-69
2023/04/18 03:46:36;;;;;;;2.70;2.50;;;19.10;53.20;;;;;;5031803;28;20180;-69
2023/04/18 03:49:03;;;;;;;2.85;2.65;;;19.20;53.20;;;;;;5031825;28;20203;-69
2023/04/18 03:51:41;;;;;;;2.80;2.60;;;19.10;53.20;;;;;;5031685;28;20211;-69
2023/04/18 03:54:07;;;;;;;2.80;2.60;;;19.10;53.20;;;;;;5015547;28;20238;-69
2023/04/18 03:56:32;;;;;;;3.10;2.90;;;19.20;53.20;;;;;;5031625;28;20199;-69
2023/04/18 03:58:58;;;;;;;2.75;2.55;;;19.10;53.20;;;;;;5032130;28;20179;-69
2023/04/18 04:01:24;;;;;;;2.75;2.55;;;19.10;53.20;;;;;;5031421;28;20211;-69
2023/04/18 04:03:51;;;;;;;2.60;2.40;;;19.20;53.20;;;;;;5031812;28;20179;-70
2023/04/18 04:06:17;;;;;;;2.90;2.70;;;19.20;53.20;;;;;;5032805;28;20215;-69
2023/04/18 04:08:44;;;;;;;2.92;2.72;;;19.20;53.20;;;;;;5031579;28;20210;-69
2023/04/18 04:11:10;;;;;;;3.30;3.00;;;19.10;53.10;;;;;;5031313;28;20250;-69
2023/04/18 04:13:37;;;;;;;3.00;2.80;;;19.20;53.20;;;;;;5031294;28;20183;-70
2023/04/18 04:16:04;;;;;;;3.10;2.90;;;19.10;53.20;;;;;;5015289;28;20189;-69
2023/04/18 04:18:30;;;;;;;3.33;3.08;;;19.20;53.20;;;;;;5029669;28;20188;-69
2023/04/18 04:20:59;;;;;;;3.10;2.90;;;19.20;53.20;;;;;;5031814;28;20202;-70
2023/04/18 04:23:41;;;;;;;2.92;2.63;;;19.10;53.10;;;;;;5016863;28;20257;-69
2023/04/18 04:26:08;;;;;;;2.70;2.50;;;19.20;53.20;;;;;;5011777;28;20564;-69
2023/04/18 04:28:47;;;;;;;2.95;2.75;;;19.10;53.10;;;;;;5025697;28;20176;-69
2023/04/18 04:31:18;;;;;;;3.42;3.15;;;19.10;53.10;;;;;;5031022;28;20273;-69
2023/04/18 04:33:45;;;;;;;2.95;2.75;;;19.20;53.20;;;;;;5031328;28;20179;-70
2023/04/18 04:36:17;;;;;;;3.00;2.80;;;19.20;53.20;;;;;;5047304;28;20190;-70
2023/04/18 04:38:44;;;;;;;2.80;2.60;;;19.20;53.40;;;;;;5007240;28;20182;-70
2023/04/18 04:41:11;;;;;;;3.03;2.83;;;19.20;53.40;;;;;;5031107;28;20203;-69
2023/04/18 04:43:39;;;;;;;2.85;2.65;;;19.20;53.30;;;;;;5014739;28;20237;-69
2023/04/18 04:46:06;;;;;;;2.95;2.75;;;19.20;53.30;;;;;;5027871;28;20267;-69
2023/04/18 04:48:32;;;;;;;3.05;2.85;;;19.10;53.20;;;;;;5012487;28;20268;-70
2023/04/18 04:51:00;;;;;;;3.53;3.15;;;19.10;53.30;;;;;;5039586;28;20223;-70
2023/04/18 04:53:31;;;;;;;2.55;2.45;;;19.10;53.20;;;;;;5030661;28;20175;-69
2023/04/18 04:55:58;;;;;;;3.00;2.80;;;19.10;53.20;;;;;;5009763;28;20318;-68
2023/04/18 04:58:24;;;;;;;3.08;2.88;;;19.20;53.30;;;;;;5011695;28;20221;-70
2023/04/18 05:01:06;;;;;;;3.45;3.15;;;19.20;53.30;;;;;;5010996;28;20262;-69
2023/04/18 05:03:35;;;;;;;3.08;2.70;;;19.10;53.40;;;;;;5030441;28;20282;-69
2023/04/18 05:06:02;;;;;;;2.95;2.75;;;19.20;53.40;;;;;;5031176;28;20303;-69
2023/04/18 05:08:28;;;;;;;3.30;3.00;;;19.10;53.40;;;;;;5030722;28;20210;-69
2023/04/18 05:10:54;;;;;;;3.00;2.70;;;19.20;53.40;;;;;;5011179;28;20590;-69
2023/04/18 05:13:20;;;;;;;3.17;2.88;;;19.20;53.40;;;;;;5028136;28;20180;-68
2023/04/18 05:15:46;;;;;;;3.45;3.20;;;19.20;53.40;;;;;;5014468;28;20520;-69
2023/04/18 05:18:13;;;;;;;3.22;2.92;;;19.10;53.40;;;;;;5010708;28;20192;-69
2023/04/18 05:20:39;;;;;;;3.00;2.80;;;19.10;53.40;;;;;;5029876;28;20222;-69
2023/04/18 05:23:05;;;;;;;3.13;2.92;;;19.20;53.40;;;;;;5031531;28;20589;-69
2023/04/18 05:25:32;;;;;;;3.40;3.13;;;19.20;53.40;;;;;;5020643;28;20191;-69
2023/04/18 05:28:00;;;;;;;3.00;2.80;;;19.10;53.30;;;;;;5030555;28;20732;-69
2023/04/18 05:30:26;;;;;;;3.25;3.03;;;19.10;53.30;;;;;;5030424;28;20223;-69
2023/04/18 05:32:51;;;;;;;2.85;2.65;;;19.10;53.30;;;;;;5027011;28;20215;-68
2023/04/18 05:35:17;;;;;;;3.35;3.13;;;19.10;53.30;;;;;;5027360;28;20199;-69
2023/04/18 05:37:43;;;;;;;3.28;2.97;;;19.20;53.40;;;;;;5030258;28;20192;-69
2023/04/18 05:40:10;;;;;;;3.53;3.33;;;19.10;53.30;;;;;;5031567;28;20195;-69
2023/04/18 05:42:36;;;;;;;3.35;3.05;;;19.20;53.40;;;;;;5013692;28;20229;-69
2023/04/18 05:45:02;;;;;;;3.50;3.20;;;19.10;53.30;;;;;;5031619;28;20183;-69
2023/04/18 05:47:29;;;;;;;3.55;3.25;;;19.10;53.30;;;;;;5030579;28;20618;-69
2023/04/18 05:49:55;;;;;;;2.90;2.70;;;19.10;53.30;;;;;;5034053;28;20215;-69
2023/04/18 05:52:21;;;;;;;3.63;3.33;;;19.10;53.30;;;;;;5033900;28;20709;-69
2023/04/18 05:54:46;;;;;;;3.20;3.00;;;19.10;53.30;;;;;;5033971;28;20187;-69
2023/04/18 05:57:12;;;;;;;3.67;3.38;;;19.10;53.30;;;;;;5035536;28;20193;-69
2023/04/18 05:59:38;;;;;;;3.08;2.88;;;19.10;53.30;;;;;;5033919;28;20274;-69
2023/04/18 06:02:04;;;;;;;3.30;3.00;;;19.10;53.30;;;;;;5039943;28;20243;-69
2023/04/18 06:04:29;;;;;;;3.25;3.05;;;19.10;53.30;;;;;;5034915;28;20197;-69
2023/04/18 06:06:55;;;;;;;3.38;3.08;;;19.10;53.30;;;;;;5033995;28;20206;-69
2023/04/18 06:09:21;;;;;;;3.50;3.20;;;19.10;53.30;;;;;;5034019;28;20219;-69
2023/04/18 06:11:46;;;;;;;3.40;3.10;;;19.10;53.30;;;;;;5033574;28;20229;-69
2023/04/18 06:14:12;;;;;;;3.10;2.80;;;19.10;53.30;;;;;;5034859;28;20371;-69
2023/04/18 06:16:38;;;;;;;3.20;3.00;;;19.10;53.30;;;;;;5034870;28;20187;-69
2023/04/18 06:19:04;;;;;;;3.38;3.17;;;19.10;53.20;;;;;;5022680;28;20222;-69
2023/04/18 06:21:30;;;;;;;3.42;3.15;;;19.10;53.20;;;;;;5033418;28;20239;-69
2023/04/18 06:23:56;;;;;;;3.60;3.30;;;19.10;53.30;;;;;;5034657;28;20187;-69
2023/04/18 06:26:22;;;;;;;3.35;3.15;;;19.10;53.30;;;;;;5033621;28;20183;-69
2023/04/18 06:28:47;;;;;;;3.67;3.38;;;19.10;53.20;;;;;;5033394;28;20214;-69
2023/04/18 06:31:13;;;;;;;3.67;3.38;;;19.10;53.30;;;;;;5034505;28;20235;-69
2023/04/18 06:33:39;;;;;;;3.88;3.58;;;19.10;53.30;;;;;;5033106;28;20175;-69
2023/04/18 06:36:06;;;;;;;3.58;3.17;;;19.10;53.30;;;;;;5033751;28;20217;-69
2023/04/18 06:38:32;;;;;;;3.55;3.25;;;19.10;53.20;;;;;;5033156;28;20198;-69
2023/04/18 06:40:58;;;;;;;3.55;3.17;;;19.10;53.30;;;;;;5016776;28;20206;-69
2023/04/18 06:43:24;;;;;;;3.90;3.60;;;19.10;53.20;;;;;;5032999;28;20218;-69
2023/04/18 06:45:50;;;;;;;3.30;3.10;;;19.10;53.20;;;;;;5016961;28;20198;-69
2023/04/18 06:48:16;;;;;;;3.42;3.17;;;19.10;53.20;;;;;;5033021;28;20191;-69
2023/04/18 06:50:42;;;;;;;3.22;3.03;;;19.10;53.20;;;;;;5034241;28;20279;-69
2023/04/18 06:53:08;;;;;;;4.22;3.63;;;19.10;53.20;;;;;;5034068;28;20257;-69
2023/04/18 06:55:35;;;;;;;3.70;3.40;;;19.10;53.20;;;;;;5032861;28;20218;-69
2023/04/18 06:58:00;;;;;;;3.17;2.95;;;19.10;53.20;;;;;;5033144;28;20184;-69
2023/04/18 07:00:26;;;;;;;4.25;3.50;;;19.10;53.20;;;;;;5032371;28;20572;-68
2023/04/18 07:02:52;;;;;;;3.88;3.25;;;19.10;53.20;;;;;;5032528;28;20207;-69
2023/04/18 07:05:18;;;;;;;3.67;3.38;;;19.10;53.20;;;;;;5016430;28;20190;-69
2023/04/18 07:07:43;;;;;;;3.10;2.90;;;19.10;53.30;;;;;;5033877;28;20218;-69
2023/04/18 07:10:10;;;;;;;3.80;3.50;;;19.10;53.20;;;;;;5032674;28;20230;-69
2023/04/18 07:12:36;;;;;;;4.22;3.83;;;19.20;53.30;;;;;;5033791;28;20215;-69
2023/04/18 07:15:03;;;;;;;3.80;3.50;;;19.10;53.20;;;;;;5016032;28;20187;-69
2023/04/18 07:17:29;;;;;;;3.70;3.40;;;19.10;53.20;;;;;;5033510;28;20183;-69
2023/04/18 07:19:55;;;;;;;4.25;3.88;;;19.20;53.30;;;;;;5033661;28;20191;-69
2023/04/18 07:22:20;;;;;;;3.85;3.55;;;19.20;53.20;;;;;;5033336;28;20218;-69
2023/04/18 07:24:46;;;;;;;4.07;3.75;;;19.10;53.20;;;;;;5032587;28;20230;-69
2023/04/18 07:27:13;;;;;;;3.75;3.45;;;19.10;53.20;;;;;;5032284;28;20184;-69
2023/04/18 07:29:39;;;;;;;3.47;3.28;;;19.20;53.30;;;;;;5015558;28;20257;-69
2023/04/18 07:32:04;;;;;;;4.13;3.83;;;19.20;53.20;;;;;;5032475;28;20571;-69
2023/04/18 07:34:32;;;;;;;3.95;3.65;;;19.10;53.20;;;;;;5032150;28;20792;-69
2023/04/18 07:36:58;;;;;;;4.40;4.00;;;19.10;53.20;;;;;;5032292;28;20245;-69
2023/04/18 07:39:24;;;;;;;3.78;3.47;;;19.20;53.30;;;;;;5032511;28;20195;-69
2023/04/18 07:41:50;;;;;;;4.43;4.07;;;19.20;53.30;;;;;;5032273;28;20211;-70
2023/04/18 07:44:17;;;;;;;4.10;3.80;;;19.10;53.20;;;;;;5032218;28;20179;-69
2023/04/18 07:46:42;;;;;;;4.40;4.00;;;19.20;53.30;;;;;;5030433;28;20220;-69
2023/04/18 07:49:08;;;;;;;3.92;3.63;;;19.10;53.20;;;;;;5031931;28;20289;-69
2023/04/18 07:51:34;;;;;;;4.30;3.90;;;19.10;53.20;;;;;;5031952;28;20203;-69
2023/04/18 07:54:00;;;;;;;4.03;3.72;;;19.10;53.20;;;;;;5032982;28;20262;-69
2023/04/18 07:56:26;;;;;;;4.00;3.70;;;19.10;53.20;;;;;;5033200;28;20263;-69
2023/04/18 07:58:52;;;;;;;4.63;4.22;;;19.20;53.30;;;;;;5031841;28;20197;-69
2023/04/18 08:01:22;;;;;;;4.10;3.80;;;19.20;53.30;;;;;;5031702;28;20219;-69
2023/04/18 08:03:48;;;;;;;4.45;4.05;;;19.20;53.30;;;;;;5032683;28;20222;-69
2023/04/18 08:06:15;;;;;;;4.22;3.92;;;19.20;53.40;;;;;;5032896;28;20183;-69
2023/04/18 08:08:42;;;;;;;4.60;4.20;;;19.10;53.20;;;;;;5032641;28;20183;-69
2023/04/18 08:11:07;;;;;;;4.53;4.13;;;19.10;53.20;;;;;;5031804;28;20223;-69
2023/04/18 08:13:33;;;;;;;4.20;3.90;;;19.10;53.20;;;;;;5031241;28;20194;-69
2023/04/18 08:16:01;;;;;;;4.05;3.65;;;19.20;53.30;;;;;;5031515;28;20183;-69
2023/04/18 08:18:26;;;;;;;4.40;4.10;;;19.20;53.30;;;;;;5031317;28;20184;-69
2023/04/18 08:20:52;;;;;;;4.30;4.00;;;19.20;53.20;;;;;;5031482;28;20179;-68
2023/04/18 08:23:18;;;;;;;4.43;3.95;;;19.10;53.20;;;;;;5027808;28;20190;-69
2023/04/18 08:25:44;;;;;;;5.15;4.75;;;19.20;53.30;;;;;;5032461;28;20183;-69
2023/04/18 08:28:10;;;;;;;5.25;4.13;;;19.10;53.20;;;;;;5045746;28;20191;-69
2023/04/18 08:30:36;;;;;;;4.50;4.13;;;19.20;53.30;;;;;;5031070;28;20207;-69
2023/04/18 08:33:02;;;;;;;4.75;4.35;;;19.20;53.30;;;;;;5038447;28;20237;-69
2023/04/18 08:35:27;;;;;;;4.57;4.18;;;19.20;53.30;;;;;;5031315;28;20183;-69
2023/04/18 08:37:53;;;;;;;4.68;4.28;;;19.20;53.30;;;;;;5032262;28;20187;-69
2023/04/18 08:40:19;;;;;;;5.07;4.55;;;19.20;53.30;;;;;;5031179;28;20187;-69
2023/04/18 08:42:45;;;;;;;5.50;5.00;;;19.20;53.30;;;;;;5031037;28;20257;-69
2023/04/18 08:45:14;;;;;;;4.75;4.32;;;19.20;53.20;;;;;;5031034;28;20191;-69
2023/04/18 08:47:42;;;;;;;5.78;5.30;;;19.20;53.20;;;;;;5031020;28;20262;-69
2023/04/18 08:50:09;;;;;;;4.30;4.00;;;19.20;53.20;;;;;;5031102;28;20196;-69
2023/04/18 08:52:38;;;;;;;4.55;4.15;;;19.20;53.20;;;;;;5030951;28;20636;-69
2023/04/18 08:55:04;;;;;;;4.47;4.15;;;19.20;53.20;;;;;;5031020;28;20210;-69
2023/04/18 08:57:30;;;;;;;4.65;4.25;;;19.20;53.20;;;;;;5030908;28;20175;-69
2023/04/18 08:59:59;;;;;;;4.55;4.20;;;19.20;53.20;;;;;;5032123;28;20222;-69
2023/04/18 09:02:41;;;;;;;4.78;4.38;;;19.20;53.20;;;;;;5018794;28;20207;-69
2023/04/18 09:05:18;;;;;;;4.88;4.47;;;19.20;53.20;;;;;;5023876;28;20218;-69
2023/04/18 09:07:46;;;;;;;4.85;4.40;;;19.20;53.20;;;;;;5032009;28;20183;-69
2023/04/18 09:10:12;;;;;;;4.63;4.32;;;19.20;53.10;;;;;;5030881;28;20694;-70
2023/04/18 09:12:51;;;;;;;5.57;5.07;;;19.20;53.10;;;;;;5014262;28;20203;-68
2023/04/18 09:15:22;;;;;;;5.03;4.63;;;19.20;53.20;;;;;;5030833;28;20262;-69
2023/04/18 09:17:52;;;;;;;5.30;4.90;;;19.20;53.10;;;;;;5014010;28;20183;-69
2023/04/18 09:20:42;;;;;;;5.03;4.60;;;19.30;53.20;;;;;;5031887;28;20187;-69
2023/04/18 09:23:20;;;;;;;4.57;4.18;;;19.20;53.10;;;;;;5027015;28;20273;-71
2023/04/18 09:25:49;;;;;;;4.63;4.25;;;19.30;53.20;;;;;;5035783;28;20571;-70
2023/04/18 09:28:29;;;;;;;4.53;4.22;;;19.20;53.10;;;;;;5035735;28;20183;-69
2023/04/18 09:30:58;;;;;;;4.55;4.15;;;19.20;53.10;;;;;;5035749;28;20222;-69
2023/04/18 09:33:32;;;;;;;5.40;4.90;;;19.20;53.10;;;;;;5034340;28;20180;-69
2023/04/18 09:36:22;;;;;;;4.40;4.00;;;19.20;53.10;;;;;;5034414;28;20187;-69
2023/04/18 09:38:51;;;;;;;5.18;4.78;;;19.30;53.20;;;;;;5034308;28;20211;-69
2023/04/18 09:41:17;;;;;;;5.22;4.72;;;19.30;53.20;;;;;;5017922;28;20195;-69
2023/04/18 09:43:45;;;;;;;5.25;4.85;;;19.30;53.20;;;;;;5035320;28;20183;-69
2023/04/18 09:46:13;;;;;;;4.80;4.45;;;19.30;53.20;;;;;;5035641;28;20681;-70
2023/04/18 09:48:41;;;;;;;5.05;4.65;;;19.30;53.20;;;;;;5034169;28;20726;-69
2023/04/18 09:51:13;;;;;;;5.07;4.57;;;19.30;53.20;;;;;;5035299;28;20211;-69
2023/04/18 09:53:43;;;;;;;5.32;4.93;;;19.30;53.20;;;;;;5034332;28;20183;-69
2023/04/18 09:56:24;;;;;;;4.88;4.47;;;19.30;53.20;;;;;;5034182;28;20180;-69
2023/04/18 09:59:01;;;;;;;5.57;5.10;;;19.30;53.20;;;;;;5035292;28;20183;-69
2023/04/18 10:01:28;;;;;;;4.85;4.47;;;19.30;53.20;;;;;;5034094;28;20210;-69
2023/04/18 10:03:56;;;;;;;4.97;4.57;;;19.30;53.20;;;;;;5033920;28;20341;-70
2023/04/18 10:06:22;;;;;;;5.18;4.68;;;19.30;53.20;;;;;;5030784;28;20662;-69
2023/04/18 10:08:50;;;;;;;5.72;5.22;;;19.30;53.20;;;;;;5033915;28;20281;-69
2023/04/18 10:11:16;;;;;;;5.05;4.65;;;19.30;53.10;;;;;;5017419;28;20329;-69
2023/04/18 10:13:46;;;;;;;5.53;5.10;;;19.30;53.10;;;;;;5034561;28;20179;-69
2023/04/18 10:16:13;;;;;;;5.72;5.25;;;19.30;53.10;;;;;;5034660;28;20215;-68
2023/04/18 10:18:41;;;;;;;5.13;4.72;;;19.30;53.10;;;;;;5028749;28;20620;-69
2023/04/18 10:21:08;;;;;;;5.65;5.15;;;19.30;53.20;;;;;;5033879;28;20576;-68
2023/04/18 10:23:39;;;;;;;4.90;4.50;;;19.30;53.20;;;;;;5033754;28;20191;-69
2023/04/18 10:26:14;;;;;;;5.47;4.97;;;19.30;53.20;;;;;;5009606;28;20175;-69
2023/04/18 10:28:53;;;;;;;5.28;4.82;;;19.30;53.20;;;;;;5033445;28;20232;-69
2023/04/18 10:31:22;;;;;;;5.28;4.78;;;19.30;53.10;;;;;;5034609;28;20612;-69
2023/04/18 10:33:52;;;;;;;5.00;4.60;;;19.40;53.20;;;;;;5032432;28;20167;-69
2023/04/18 10:36:19;;;;;;;5.43;5.03;;;19.40;53.20;;;;;;5034718;28;20183;-69
2023/04/18 10:39:12;;;;;;;5.03;4.63;;;19.30;53.10;;;;;;5034537;28;20211;-69
2023/04/18 10:41:48;;;;;;;5.35;4.85;;;19.30;53.10;;;;;;5024510;28;20218;-69
2023/04/18 10:44:17;;;;;;;5.25;4.75;;;19.30;53.10;;;;;;5026499;28;20273;-69
2023/04/18 10:46:52;;;;;;;4.90;4.50;;;19.30;53.10;;;;;;5033379;28;20179;-69
2023/04/18 10:49:23;;;;;;;5.07;4.68;;;19.30;53.10;;;;;;5033132;28;20213;-69
2023/04/18 10:51:58;;;;;;;5.53;5.03;;;19.40;53.20;;;;;;5034335;28;20203;-69
2023/04/18 10:54:37;;;;;;;4.90;4.50;;;19.40;53.20;;;;;;5033012;28;20240;-69
2023/04/18 10:57:06;;;;;;;5.68;5.18;;;19.40;53.20;;;;;;5033417;28;20201;-69
2023/04/18 10:59:41;;;;;;;5.07;4.68;;;19.30;53.10;;;;;;5032903;28;20249;-69
2023/04/18 11:02:30;;;;;;;4.53;4.13;;;19.30;53.10;;;;;;5024824;28;20214;-69
2023/04/18 11:04:59;;;;;;;5.53;5.03;;;19.40;53.20;;;;;;5034027;28;20222;-69
2023/04/18 11:07:43;;;;;;;5.20;4.78;;;19.30;53.10;;;;;;5032656;28;20225;-69
2023/04/18 11:10:10;;;;;;;5.78;5.28;;;19.40;53.10;;;;;;5032679;28;20207;-69
2023/04/18 11:12:39;;;;;;;4.95;4.55;;;19.40;53.10;;;;;;5032830;28;20231;-70
2023/04/18 11:15:11;;;;;;;5.05;4.65;;;19.40;53.10;;;;;;5033619;28;20180;-69
2023/04/18 11:17:38;;;;;;;4.85;4.45;;;19.40;53.10;;;;;;5033668;28;20184;-69
2023/04/18 11:20:13;;;;;;;4.82;4.53;;;19.40;53.10;;;;;;5032578;28;20542;-69
2023/04/18 11:22:50;;;;;;;4.82;4.43;;;19.40;53.10;;;;;;5032350;28;20238;-69
2023/04/18 11:25:18;;;;;;;4.80;4.40;;;19.40;53.00;;;;;;5032606;28;20186;-68
2023/04/18 11:27:47;;;;;;;5.13;4.72;;;19.40;53.10;;;;;;5032334;28;20785;-69
2023/04/18 11:30:14;;;;;;;4.80;4.50;;;19.40;53.10;;;;;;5016089;28;20200;-69
2023/04/18 11:32:40;;;;;;;4.68;4.28;;;19.40;53.10;;;;;;5015643;28;20207;-69
2023/04/18 11:35:09;;;;;;;4.68;4.28;;;19.40;53.10;;;;;;5015630;28;20225;-69
2023/04/18 11:37:37;;;;;;;4.72;4.40;;;19.40;53.10;;;;;;5033001;28;20182;-69
2023/04/18 11:40:07;;;;;;;5.05;4.65;;;19.40;53.20;;;;;;5048816;28;20186;-69
2023/04/18 11:42:36;;;;;;;5.35;4.93;;;19.40;53.10;;;;;;5032298;28;20211;-69
2023/04/18 11:45:03;;;;;;;4.53;4.22;;;19.40;53.20;;;;;;5031723;28;20183;-69
2023/04/18 11:47:32;;;;;;;4.90;4.50;;;19.40;53.20;;;;;;5026003;28;20192;-70
2023/04/18 11:50:01;;;;;;;4.85;4.45;;;19.40;53.10;;;;;;5014164;28;20207;-69
2023/04/18 11:52:30;;;;;;;4.95;4.55;;;19.40;53.20;;;;;;5032099;28;20211;-70
2023/04/18 11:55:16;;;;;;;4.65;4.28;;;19.40;53.20;;;;;;5031839;28;20279;-69
2023/04/18 11:57:52;;;;;;;4.75;4.35;;;19.40;53.20;;;;;;5034473;28;20199;-69
2023/04/18 12:00:30;;;;;;;5.38;4.47;;;19.40;53.10;;;;;;5033202;28;20230;-69
2023/04/18 12:02:57;;;;;;;4.80;4.40;;;19.40;53.10;;;;;;5032679;28;20211;-69
2023/04/18 12:05:33;;;;;;;5.03;4.63;;;19.40;53.10;;;;;;5031943;28;20178;-69
2023/04/18 12:08:08;;;;;;;4.70;4.30;;;19.40;53.10;;;;;;5031572;28;20190;-69
2023/04/18 12:10:34;;;;;;;4.65;4.25;;;19.40;53.10;;;;;;5031536;28;20261;-69
2023/04/18 12:13:05;;;;;;;4.85;4.45;;;19.40;53.10;;;;;;5031482;28;20243;-69
2023/04/18 12:15:32;;;;;;;4.22;3.92;;;19.50;53.20;;;;;;5045198;28;20175;-69
2023/04/18 12:18:03;;;;;;;4.72;4.32;;;19.40;53.20;;;;;;5032378;28;20191;-69
2023/04/18 12:20:52;;;;;;;4.93;4.43;;;19.40;53.20;;;;;;5031468;28;20321;-69
2023/04/18 12:23:41;;;;;;;4.75;4.35;;;19.40;53.10;;;;;;5047883;28;20191;-69
2023/04/18 12:26:17;;;;;;;5.82;4.82;;;19.40;53.10;;;;;;5039743;28;20190;-69
2023/04/18 12:28:50;;;;;;;3.92;3.63;;;19.40;53.10;;;;;;5032831;28;20187;-69
2023/04/18 12:31:16;;;;;;;4.80;4.40;;;19.40;53.10;;;;;;5023776;28;20222;-69
2023/04/18 12:33:42;;;;;;;4.95;4.55;;;19.40;53.10;;;;;;5032610;28;20179;-69
2023/04/18 12:36:08;;;;;;;4.40;3.97;;;19.40;53.10;;;;;;5032454;28;20197;-69
2023/04/18 12:38:34;;;;;;;4.90;4.50;;;19.40;53.10;;;;;;5031136;28;20219;-69
2023/04/18 12:41:00;;;;;;;4.53;4.10;;;19.40;53.20;;;;;;5031043;28;20191;-68
2023/04/18 12:43:26;;;;;;;4.90;4.50;;;19.40;53.20;;;;;;5032167;28;20187;-69
2023/04/18 12:45:52;;;;;;;4.47;4.15;;;19.40;53.20;;;;;;5032381;28;20194;-69
2023/04/18 12:48:17;;;;;;;4.30;4.00;;;19.40;53.20;;;;;;5031107;28;20187;-69
2023/04/18 12:50:43;;;;;;;4.30;4.00;;;19.50;53.20;;;;;;5030992;28;20591;-69
2023/04/18 12:53:09;;;;;;;4.65;4.25;;;19.40;53.10;;;;;;5030741;28;20205;-69
2023/04/18 12:55:35;;;;;;;4.25;3.95;;;19.40;53.10;;;;;;5030875;28;20186;-69